Time;durP1;ratioP1;P1;durP2;ratioP2;P2;SDS_P1;SDS_P2;PMS_P1;PMS_P2;Temp;Humidity;BMP_temperature;BMP_pressure;BME280_temperature;BME280_humidity;BME280_pressure;Samples;Min_cycle;Max_cycle;Signal;HPM_P1;HPM_P2
2023/06/10 12:41:19;;;;;;;8.50;1.88;;;27.90;59.10;;;;;;5118383;27;20344;-57
2023/06/10 12:43:46;;;;;;;5.35;1.67;;;27.80;61.10;;;;;;5107133;27;20423;-54
2023/06/10 12:46:12;;;;;;;5.55;1.67;;;27.90;59.90;;;;;;5117046;28;20046;-55
2023/06/10 12:48:49;;;;;;;6.70;1.73;;;28.10;58.90;;;;;;5112147;27;20042;-54
2023/06/10 12:51:15;;;;;;;4.03;1.05;;;28.10;57.10;;;;;;5102565;28;20138;-51
2023/06/10 12:53:40;;;;;;;2.75;1.13;;;28.20;58.20;;;;;;5093327;28;20515;-56
2023/06/10 12:56:06;;;;;;;2.92;1.38;;;28.30;57.40;;;;;;5099942;28;20043;-56
2023/06/10 12:58:32;;;;;;;6.38;1.45;;;28.40;58.70;;;;;;5102242;28;20034;-52
2023/06/10 13:00:59;;;;;;;3.88;1.45;;;28.40;58.60;;;;;;5101853;28;20068;-54
2023/06/10 13:03:24;;;;;;;2.83;1.58;;;28.50;57.20;;;;;;5104772;28;20397;-55
2023/06/10 13:05:50;;;;;;;7.55;1.33;;;28.60;56.50;;;;;;5104322;28;20034;-52
2023/06/10 13:08:16;;;;;;;8.10;2.03;;;28.60;57.50;;;;;;5106504;28;20039;-57
2023/06/10 13:10:42;;;;;;;3.45;1.73;;;28.60;58.70;;;;;;5106440;28;20127;-54
2023/06/10 13:13:09;;;;;;;5.00;1.85;;;28.80;56.80;;;;;;5102991;27;20048;-56
2023/06/10 13:15:38;;;;;;;2.25;1.67;;;28.80;56.80;;;;;;5101751;27;20425;-55
2023/06/10 13:18:05;;;;;;;3.03;1.45;;;28.80;55.40;;;;;;5102904;28;20038;-55
2023/06/10 13:20:30;;;;;;;6.10;1.67;;;28.70;55.40;;;;;;5098507;27;20050;-54
2023/06/10 13:22:56;;;;;;;122.28;9.90;;;28.70;54.20;;;;;;5097335;28;20041;-54
2023/06/10 13:25:22;;;;;;;5.57;1.48;;;28.70;54.10;;;;;;5106672;28;20034;-52
2023/06/10 13:27:48;;;;;;;5.88;1.83;;;28.60;53.80;;;;;;5100626;28;20032;-55
2023/06/10 13:30:14;;;;;;;1.88;1.73;;;28.60;54.90;;;;;;5104818;28;20050;-53
2023/06/10 13:32:40;;;;;;;4.15;1.25;;;28.50;54.90;;;;;;5097340;28;20343;-52
2023/06/10 13:35:07;;;;;;;2.40;1.45;;;28.50;55.50;;;;;;5097137;28;20048;-54
2023/06/10 13:37:33;;;;;;;2.22;1.60;;;28.50;54.10;;;;;;5106597;28;20040;-57
2023/06/10 13:39:59;;;;;;;2.60;1.88;;;28.60;54.20;;;;;;5101881;28;20442;-55
2023/06/10 13:42:26;;;;;;;4.88;2.15;;;28.70;55.30;;;;;;5107077;28;20047;-56
2023/06/10 13:44:51;;;;;;;5.82;2.53;;;28.70;53.10;;;;;;5104312;28;20453;-56
2023/06/10 13:47:17;;;;;;;2.40;2.08;;;28.70;52.60;;;;;;5105758;28;20035;-55
2023/06/10 13:49:43;;;;;;;5.47;1.70;;;28.70;52.80;;;;;;5099871;27;20492;-53
2023/06/10 13:52:08;;;;;;;1.55;1.45;;;28.70;52.70;;;;;;5088977;28;20040;-55
2023/06/10 13:54:37;;;;;;;15.75;3.42;;;28.70;51.50;;;;;;5084835;28;20040;-55
2023/06/10 13:57:03;;;;;;;5.43;2.50;;;28.70;50.80;;;;;;5086143;28;20131;-53
2023/06/10 13:59:29;;;;;;;4.05;3.08;;;28.80;51.10;;;;;;5089660;28;20031;-53
2023/06/10 14:01:56;;;;;;;4.35;2.67;;;28.90;52.00;;;;;;5089019;28;20033;-55
2023/06/10 14:04:22;;;;;;;4.50;2.63;;;28.90;52.20;;;;;;5085859;28;20166;-57
2023/06/10 14:06:48;;;;;;;2.45;2.28;;;28.90;51.90;;;;;;5085913;28;20127;-53
2023/06/10 14:09:14;;;;;;;3.70;2.75;;;29.00;52.80;;;;;;5085022;28;20040;-53
2023/06/10 14:11:39;;;;;;;1.85;1.70;;;29.10;53.80;;;;;;5088923;28;20032;-53
2023/06/10 14:14:05;;;;;;;2.25;1.60;;;29.10;51.00;;;;;;5088764;28;20142;-54
2023/06/10 14:16:31;;;;;;;3.88;1.70;;;29.10;50.70;;;;;;5091208;28;20036;-59
2023/06/10 14:18:56;;;;;;;2.47;1.40;;;29.00;50.20;;;;;;5088865;28;20047;-56
2023/06/10 14:21:22;;;;;;;2.78;1.70;;;29.10;50.20;;;;;;5089074;28;20059;-55
2023/06/10 14:23:49;;;;;;;2.00;1.48;;;29.10;49.50;;;;;;5086449;28;20020;-53
2023/06/10 14:26:14;;;;;;;3.65;1.60;;;29.10;49.80;;;;;;5083391;28;20111;-53
2023/06/10 14:28:40;;;;;;;3.03;1.30;;;29.10;49.30;;;;;;5083926;28;20119;-56
2023/06/10 14:31:07;;;;;;;3.63;1.88;;;29.10;49.90;;;;;;5089189;28;20514;-58
2023/06/10 14:33:32;;;;;;;10.65;1.70;;;29.10;48.80;;;;;;5087257;28;20098;-57
2023/06/10 14:35:58;;;;;;;4.65;1.25;;;29.10;50.00;;;;;;5082899;28;20091;-56
2023/06/10 14:38:24;;;;;;;6.60;1.80;;;29.20;51.00;;;;;;5091082;28;20409;-56
2023/06/10 14:40:49;;;;;;;2.75;1.85;;;29.10;49.60;;;;;;5091924;28;20129;-57
2023/06/10 14:43:15;;;;;;;4.60;1.80;;;29.10;51.10;;;;;;5092895;28;20036;-57
2023/06/10 14:45:41;;;;;;;4.30;1.63;;;29.10;51.10;;;;;;5093395;28;20125;-52
2023/06/10 14:48:07;;;;;;;4.97;2.08;;;29.10;51.00;;;;;;5096514;28;20055;-53
2023/06/10 14:50:35;;;;;;;5.82;1.60;;;29.00;50.50;;;;;;5109964;28;20036;-53
2023/06/10 14:53:00;;;;;;;6.35;1.77;;;29.00;49.40;;;;;;5100836;28;20153;-54
2023/06/10 14:55:26;;;;;;;6.93;1.55;;;28.90;50.20;;;;;;5094080;27;20107;-59
2023/06/10 14:57:52;;;;;;;1.52;1.38;;;28.90;50.30;;;;;;5092222;28;20032;-58
2023/06/10 15:00:22;;;;;;;1.50;1.20;;;28.90;51.20;;;;;;5091573;28;20036;-54
2023/06/10 15:02:47;;;;;;;3.17;1.27;;;28.80;50.00;;;;;;5094151;28;20043;-56
2023/06/10 15:05:15;;;;;;;1.33;1.17;;;28.80;49.40;;;;;;5091351;28;20035;-56
2023/06/10 15:07:41;;;;;;;3.53;1.02;;;28.70;49.40;;;;;;5095246;28;20044;-52
2023/06/10 15:10:07;;;;;;;1.60;1.30;;;28.70;49.30;;;;;;5090655;28;20127;-54
2023/06/10 15:12:33;;;;;;;0.93;0.93;;;28.70;48.50;;;;;;5094283;28;20038;-58
2023/06/10 15:14:58;;;;;;;2.95;1.10;;;28.70;48.90;;;;;;5091200;28;20040;-54
2023/06/10 15:17:24;;;;;;;1.60;1.23;;;28.70;48.70;;;;;;5094154;28;20424;-52
2023/06/10 15:19:49;;;;;;;6.82;1.10;;;28.60;48.00;;;;;;5106183;28;20039;-52
2023/06/10 15:22:15;;;;;;;1.73;1.27;;;28.70;49.50;;;;;;5104923;27;20059;-57
2023/06/10 15:24:40;;;;;;;3.38;0.95;;;28.60;49.80;;;;;;5095174;28;20036;-56
2023/06/10 15:27:06;;;;;;;2.13;1.17;;;28.60;51.20;;;;;;5093298;28;20123;-52
2023/06/10 15:29:32;;;;;;;3.00;1.58;;;28.60;49.50;;;;;;5094559;28;20039;-52
2023/06/10 15:31:57;;;;;;;15.38;1.95;;;28.50;50.30;;;;;;5103464;28;20093;-53
2023/06/10 15:34:23;;;;;;;5.18;1.20;;;28.50;49.60;;;;;;5098998;28;20039;-52
2023/06/10 15:36:48;;;;;;;210.05;17.13;;;28.50;50.10;;;;;;5096203;28;20028;-51
2023/06/10 15:39:14;;;;;;;67.38;5.15;;;28.50;50.10;;;;;;5097246;28;20039;-52
2023/06/10 15:41:40;;;;;;;4.90;1.23;;;28.40;49.90;;;;;;5106402;28;20277;-53
2023/06/10 15:44:06;;;;;;;3.63;0.98;;;28.40;49.70;;;;;;5096920;28;20598;-55
2023/06/10 15:46:31;;;;;;;4.22;1.42;;;28.30;49.20;;;;;;5105218;28;20032;-54
2023/06/10 15:48:57;;;;;;;2.80;0.80;;;28.30;49.50;;;;;;5090822;28;20035;-52
2023/06/10 15:51:23;;;;;;;2.30;1.27;;;28.30;50.50;;;;;;5094617;28;20046;-55
2023/06/10 15:53:50;;;;;;;3.65;1.00;;;28.30;51.00;;;;;;5097886;27;20040;-51
2023/06/10 15:56:16;;;;;;;3.60;1.42;;;28.30;50.50;;;;;;5091677;28;20082;-54
2023/06/10 15:58:41;;;;;;;5.13;1.15;;;28.30;50.50;;;;;;5090824;28;20076;-52
2023/06/10 16:01:08;;;;;;;4.00;1.45;;;28.30;49.70;;;;;;5090413;28;20044;-51
2023/06/10 16:03:34;;;;;;;4.35;1.27;;;28.20;49.60;;;;;;5088725;28;20048;-52
2023/06/10 16:06:00;;;;;;;2.97;1.02;;;28.20;49.40;;;;;;5090205;28;20235;-54
2023/06/10 16:08:26;;;;;;;1.38;1.08;;;28.20;49.80;;;;;;5089636;28;20040;-52
2023/06/10 16:10:52;;;;;;;1.33;1.02;;;28.20;50.40;;;;;;5090051;28;20074;-55
2023/06/10 16:13:17;;;;;;;3.63;1.00;;;28.20;50.10;;;;;;5090030;28;20489;-51
2023/06/10 16:15:43;;;;;;;1.42;1.15;;;28.20;49.60;;;;;;5090199;28;20477;-52
2023/06/10 16:18:09;;;;;;;5.22;1.02;;;28.10;49.40;;;;;;5089727;28;20068;-54
2023/06/10 16:20:35;;;;;;;3.13;0.95;;;28.10;49.70;;;;;;5094843;28;20039;-54
2023/06/10 16:23:04;;;;;;;3.65;1.30;;;28.10;50.70;;;;;;5088153;28;20154;-56
2023/06/10 16:25:30;;;;;;;3.65;1.20;;;28.00;50.10;;;;;;5088836;28;20032;-51
2023/06/10 16:27:56;;;;;;;204.90;19.33;;;28.10;50.70;;;;;;5089118;28;20036;-51
2023/06/10 16:30:22;;;;;;;3.83;1.38;;;28.00;49.80;;;;;;5090100;28;20040;-51
2023/06/10 16:32:48;;;;;;;42.70;4.30;;;28.00;50.50;;;;;;5089505;28;20039;-52
2023/06/10 16:35:14;;;;;;;1.75;0.80;;;28.00;50.90;;;;;;5089955;28;20400;-52
2023/06/10 16:37:39;;;;;;;2.03;1.13;;;28.00;51.40;;;;;;5089626;28;20040;-51
2023/06/10 16:40:06;;;;;;;1.83;0.88;;;28.00;51.70;;;;;;5089880;28;20401;-54
2023/06/10 16:42:32;;;;;;;3.70;1.92;;;28.00;51.90;;;;;;5089409;28;20040;-51
2023/06/10 16:44:57;;;;;;;3.03;1.38;;;28.00;51.00;;;;;;5089814;28;20047;-52
2023/06/10 16:47:23;;;;;;;3.17;0.95;;;28.00;51.00;;;;;;5089224;28;20032;-56
2023/06/10 16:49:49;;;;;;;7.65;1.73;;;28.00;50.40;;;;;;5089598;28;20039;-56
2023/06/10 16:52:15;;;;;;;2.45;0.70;;;28.00;52.20;;;;;;5089462;28;20085;-55
2023/06/10 16:54:40;;;;;;;31.05;2.67;;;28.00;51.10;;;;;;5093966;28;20552;-55
2023/06/10 16:57:07;;;;;;;3.85;1.60;;;28.00;51.50;;;;;;5096849;28;20158;-54
2023/06/10 16:59:32;;;;;;;1.75;1.27;;;28.00;51.80;;;;;;5089076;28;20047;-51
2023/06/10 17:01:58;;;;;;;5.63;1.80;;;28.10;50.80;;;;;;5089499;28;20489;-52
2023/06/10 17:04:23;;;;;;;3.90;1.23;;;28.10;51.00;;;;;;5089294;28;20036;-57
2023/06/10 17:06:49;;;;;;;3.35;1.42;;;28.10;51.20;;;;;;5090007;28;20480;-54
2023/06/10 17:09:16;;;;;;;2.38;1.02;;;28.10;51.20;;;;;;5088980;28;20035;-53
2023/06/10 17:11:42;;;;;;;2.55;1.10;;;28.20;50.90;;;;;;5089610;28;20036;-56
2023/06/10 17:14:07;;;;;;;7.63;1.70;;;28.20;51.10;;;;;;5088875;28;20105;-54
2023/06/10 17:16:33;;;;;;;2.90;1.40;;;28.30;51.80;;;;;;5089157;28;20040;-53
2023/06/10 17:18:59;;;;;;;3.97;1.38;;;28.30;51.70;;;;;;5089579;28;20111;-55
2023/06/10 17:21:24;;;;;;;30.15;5.00;;;28.20;52.90;;;;;;5089853;28;20028;-56
2023/06/10 17:23:51;;;;;;;9.88;2.15;;;28.20;52.60;;;;;;5089555;28;20063;-55
2023/06/10 17:26:17;;;;;;;8.88;1.50;;;28.10;52.10;;;;;;5090218;28;20105;-56
2023/06/10 17:28:42;;;;;;;7.18;2.47;;;28.00;52.80;;;;;;5093480;28;20036;-55
2023/06/10 17:31:08;;;;;;;33.33;3.10;;;27.90;53.40;;;;;;5092673;28;20044;-55
2023/06/10 17:33:33;;;;;;;9.98;1.65;;;27.90;53.90;;;;;;5092593;28;20399;-54
2023/06/10 17:35:59;;;;;;;7.05;2.08;;;27.90;53.50;;;;;;5092843;28;20040;-54
2023/06/10 17:38:25;;;;;;;3.65;1.60;;;27.90;53.40;;;;;;5093053;28;20050;-56
2023/06/10 17:40:50;;;;;;;3.35;2.53;;;27.90;53.10;;;;;;5093390;28;20043;-52
2023/06/10 17:43:16;;;;;;;3.30;1.75;;;27.80;53.20;;;;;;5093645;28;20441;-54
2023/06/10 17:45:41;;;;;;;3.28;2.15;;;27.80;53.70;;;;;;5093136;28;20039;-54
2023/06/10 17:48:07;;;;;;;6.28;1.80;;;27.70;54.20;;;;;;5093245;28;20044;-55
2023/06/10 17:50:33;;;;;;;8.57;1.95;;;27.60;54.20;;;;;;5093400;28;20040;-58
2023/06/10 17:52:58;;;;;;;9.45;1.90;;;27.60;54.80;;;;;;5091716;28;20118;-53
2023/06/10 17:55:24;;;;;;;3.75;1.55;;;27.50;54.90;;;;;;5092356;28;20043;-55
2023/06/10 17:57:49;;;;;;;4.88;1.73;;;27.50;55.20;;;;;;5092648;28;20171;-55
2023/06/10 18:00:15;;;;;;;166.40;14.30;;;27.40;55.80;;;;;;5092367;28;20120;-57
2023/06/10 18:02:41;;;;;;;5.45;2.33;;;27.30;55.60;;;;;;5092732;28;20435;-57
2023/06/10 18:05:07;;;;;;;3.65;1.98;;;27.30;55.70;;;;;;5090941;28;20090;-57
2023/06/10 18:07:32;;;;;;;3.35;2.28;;;27.20;56.20;;;;;;5080347;28;20476;-56
2023/06/10 18:09:58;;;;;;;4.80;2.53;;;27.20;56.60;;;;;;5093068;28;20443;-55
2023/06/10 18:12:24;;;;;;;2.88;2.05;;;27.10;57.00;;;;;;5092334;28;20032;-55
2023/06/10 18:14:50;;;;;;;12.85;2.30;;;27.00;57.20;;;;;;5100571;28;20035;-56
2023/06/10 18:17:15;;;;;;;4.82;2.17;;;27.00;56.80;;;;;;5107671;28;20067;-52
2023/06/10 18:19:41;;;;;;;24.40;3.40;;;27.00;57.10;;;;;;5091627;28;20043;-53
2023/06/10 18:22:07;;;;;;;4.55;2.22;;;26.90;57.10;;;;;;5092083;28;20052;-57
2023/06/10 18:24:32;;;;;;;5.85;2.22;;;26.90;57.40;;;;;;5092281;28;20032;-55
2023/06/10 18:26:58;;;;;;;352.05;28.60;;;26.80;56.70;;;;;;5092116;28;20032;-56
2023/06/10 18:29:23;;;;;;;10.40;2.78;;;26.80;57.00;;;;;;5090985;28;20036;-53
2023/06/10 18:31:49;;;;;;;8.13;2.85;;;26.70;57.40;;;;;;5091299;28;20040;-57
2023/06/10 18:34:15;;;;;;;131.90;11.50;;;26.70;57.60;;;;;;5090417;28;20047;-57
2023/06/10 18:36:40;;;;;;;65.38;5.25;;;26.60;57.30;;;;;;5091880;28;20508;-57
2023/06/10 18:39:06;;;;;;;8.00;2.83;;;26.60;57.70;;;;;;5091064;28;20040;-58
2023/06/10 18:41:31;;;;;;;10.30;1.90;;;26.50;57.90;;;;;;5086686;28;20078;-57
2023/06/10 18:43:59;;;;;;;111.25;11.15;;;26.50;58.50;;;;;;5090125;28;20512;-58
2023/06/10 18:46:25;;;;;;;4.97;2.13;;;26.40;58.90;;;;;;5090042;28;20216;-57
2023/06/10 18:48:51;;;;;;;18.40;3.28;;;26.40;59.20;;;;;;5085708;28;20393;-59
2023/06/10 18:51:17;;;;;;;220.95;17.38;;;26.30;58.90;;;;;;5090044;28;20036;-58
2023/06/10 18:53:42;;;;;;;183.70;14.25;;;26.30;59.50;;;;;;5090148;28;20041;-57
2023/06/10 18:56:08;;;;;;;179.27;16.30;;;26.20;59.90;;;;;;5089518;28;20644;-58
2023/06/10 18:58:35;;;;;;;500.98;39.70;;;26.20;60.40;;;;;;5091488;28;20485;-57
2023/06/10 19:01:02;;;;;;;105.13;9.38;;;26.10;60.30;;;;;;5089712;28;20044;-58
2023/06/10 19:03:28;;;;;;;111.47;8.38;;;26.10;60.50;;;;;;5091239;28;20047;-58
2023/06/10 19:05:54;;;;;;;85.50;7.35;;;26.00;60.50;;;;;;5089323;28;20097;-59
2023/06/10 19:08:20;;;;;;;428.60;35.67;;;25.90;60.60;;;;;;5082171;28;20036;-55
2023/06/10 19:10:46;;;;;;;331.13;24.25;;;25.90;61.00;;;;;;5091439;28;20044;-56
2023/06/10 19:13:11;;;;;;;534.45;41.97;;;25.80;60.90;;;;;;5073392;28;20041;-57
2023/06/10 19:15:37;;;;;;;473.88;35.80;;;25.80;61.00;;;;;;5080569;28;20039;-57
2023/06/10 19:18:02;;;;;;;143.25;11.38;;;25.70;61.40;;;;;;5090955;28;20043;-54
2023/06/10 19:20:28;;;;;;;216.98;17.33;;;25.70;62.00;;;;;;5091007;28;20484;-57
2023/06/10 19:22:54;;;;;;;80.15;8.13;;;25.60;61.60;;;;;;5071667;28;20502;-56
2023/06/10 19:25:19;;;;;;;633.80;58.83;;;25.50;61.90;;;;;;5079318;28;20039;-55
2023/06/10 19:27:46;;;;;;;67.13;9.07;;;25.40;61.80;;;;;;5090298;28;20458;-52
2023/06/10 19:30:12;;;;;;;29.67;3.42;;;25.30;62.10;;;;;;5086193;28;20044;-56
2023/06/10 19:32:38;;;;;;;24.65;3.83;;;25.30;62.30;;;;;;5090693;28;20040;-55
2023/06/10 19:35:04;;;;;;;15.15;3.10;;;25.20;62.40;;;;;;5090460;28;20119;-56
2023/06/10 19:37:30;;;;;;;8.27;2.70;;;25.10;62.60;;;;;;5089835;28;20043;-56
2023/06/10 19:39:56;;;;;;;7.72;2.70;;;25.10;62.90;;;;;;5072888;28;20032;-55
2023/06/10 19:42:22;;;;;;;6.47;2.80;;;25.00;63.00;;;;;;5085708;28;20087;-55
2023/06/10 19:44:47;;;;;;;9.68;2.90;;;24.90;63.20;;;;;;5089873;28;20066;-57
2023/06/10 19:47:13;;;;;;;5.50;2.70;;;24.90;63.40;;;;;;5090286;28;20111;-54
2023/06/10 19:49:39;;;;;;;4.60;3.38;;;24.80;63.70;;;;;;5089378;28;20036;-55
2023/06/10 19:52:08;;;;;;;3.50;2.85;;;24.70;63.70;;;;;;5090189;28;20044;-54
2023/06/10 19:54:35;;;;;;;4.03;2.40;;;24.70;64.10;;;;;;5078538;28;20150;-55
2023/06/10 19:57:02;;;;;;;11.07;3.03;;;24.60;64.00;;;;;;5075670;28;20050;-56
2023/06/10 19:59:32;;;;;;;6.30;3.53;;;24.50;64.10;;;;;;5084765;28;20036;-57
2023/06/10 20:01:58;;;;;;;221.32;16.92;;;24.50;64.20;;;;;;5073707;28;20043;-56
2023/06/10 20:04:23;;;;;;;60.75;6.50;;;24.40;64.70;;;;;;5077252;28;20036;-53
2023/06/10 20:06:49;;;;;;;7.95;3.15;;;24.30;64.90;;;;;;5074732;28;20032;-56
2023/06/10 20:09:15;;;;;;;9.77;3.22;;;24.30;64.60;;;;;;5089467;28;20036;-58
2023/06/10 20:11:40;;;;;;;3.30;2.28;;;24.20;64.50;;;;;;5089874;28;20752;-56
2023/06/10 20:14:06;;;;;;;7.15;3.05;;;24.20;64.50;;;;;;5088247;28;20228;-56
2023/06/10 20:16:31;;;;;;;17.48;2.97;;;24.10;64.50;;;;;;5088238;28;20031;-58
2023/06/10 20:18:57;;;;;;;4.88;2.72;;;24.10;64.80;;;;;;5087607;28;20028;-58
2023/06/10 20:21:23;;;;;;;4.25;3.22;;;24.00;64.80;;;;;;5086445;28;20042;-57
2023/06/10 20:23:49;;;;;;;6.20;3.13;;;24.00;65.00;;;;;;5094391;28;20047;-56
2023/06/10 20:26:15;;;;;;;8.60;3.08;;;23.90;65.10;;;;;;5090535;28;20385;-57
2023/06/10 20:28:40;;;;;;;9.52;3.78;;;23.80;65.20;;;;;;5087676;28;20118;-56
2023/06/10 20:31:06;;;;;;;3.60;2.70;;;23.80;65.90;;;;;;5089767;28;20036;-56
2023/06/10 20:33:31;;;;;;;17.58;4.78;;;23.80;65.60;;;;;;5090089;28;20040;-55
2023/06/10 20:35:57;;;;;;;7.22;3.55;;;23.70;65.60;;;;;;5089876;28;20036;-55
2023/06/10 20:38:23;;;;;;;7.35;3.72;;;23.70;65.70;;;;;;5089275;28;20462;-54
2023/06/10 20:40:49;;;;;;;6.70;3.50;;;23.70;65.90;;;;;;5089395;28;20107;-54
2023/06/10 20:43:16;;;;;;;10.63;3.70;;;23.60;66.00;;;;;;5087954;28;20060;-56
2023/06/10 20:45:43;;;;;;;14.07;4.13;;;23.60;66.10;;;;;;5089313;28;20500;-53
2023/06/10 20:48:08;;;;;;;19.48;4.20;;;23.50;66.50;;;;;;5089010;28;20402;-54
2023/06/10 20:50:34;;;;;;;30.00;4.55;;;23.40;67.00;;;;;;5081439;28;20044;-56
2023/06/10 20:53:00;;;;;;;7.75;3.67;;;23.40;67.50;;;;;;5083835;28;20040;-56
2023/06/10 20:55:26;;;;;;;9.52;3.40;;;23.30;67.90;;;;;;5089307;28;20028;-54
2023/06/10 20:57:54;;;;;;;13.23;3.30;;;23.20;68.60;;;;;;5088675;28;20115;-55
2023/06/10 21:00:21;;;;;;;6.63;4.60;;;23.10;68.40;;;;;;5071993;28;20037;-55
2023/06/10 21:02:47;;;;;;;6.63;4.35;;;22.90;68.50;;;;;;5080645;28;20117;-55
2023/06/10 21:05:13;;;;;;;10.98;4.72;;;22.90;68.80;;;;;;5078596;28;20075;-55
2023/06/10 21:07:38;;;;;;;7.93;4.20;;;22.90;69.00;;;;;;5073736;28;20123;-54
2023/06/10 21:10:04;;;;;;;6.72;3.58;;;22.80;69.30;;;;;;5093500;28;20381;-57
2023/06/10 21:12:30;;;;;;;8.38;4.47;;;22.70;69.80;;;;;;5092586;28;20201;-55
2023/06/10 21:14:57;;;;;;;9.68;3.40;;;22.60;69.80;;;;;;5080215;28;20040;-56
2023/06/10 21:17:22;;;;;;;8.82;3.63;;;22.50;70.20;;;;;;5079671;28;20043;-54
2023/06/10 21:19:48;;;;;;;;;;;22.40;70.90;;;;;;5093772;28;20061;-56
2023/06/10 21:22:14;;;;;;;10.68;4.30;;;22.30;71.60;;;;;;5087172;28;19974;-53
2023/06/10 21:24:39;;;;;;;;;;;22.20;71.90;;;;;;5086097;28;20032;-54
2023/06/10 21:27:05;;;;;;;77.20;8.82;;;22.10;72.80;;;;;;5093062;28;20362;-55
2023/06/10 21:29:31;;;;;;;82.82;8.82;;;22.00;72.10;;;;;;5101786;28;20054;-55
2023/06/10 21:31:57;;;;;;;;;;;21.90;72.20;;;;;;5103680;28;20035;-52
2023/06/10 21:34:22;;;;;;;26.48;4.15;;;21.70;72.70;;;;;;5096870;28;20348;-52
2023/06/10 21:36:48;;;;;;;;;;;21.70;71.60;;;;;;5094783;28;20378;-55
2023/06/10 21:39:13;;;;;;;10.35;4.47;;;21.60;72.40;;;;;;5086360;28;19916;-51
2023/06/10 21:41:39;;;;;;;6.43;3.75;;;21.50;72.00;;;;;;5072186;28;20482;-53
2023/06/10 21:44:05;;;;;;;9.55;3.45;;;21.40;72.20;;;;;;5088173;28;20036;-53
2023/06/10 21:46:32;;;;;;;7.72;4.15;;;21.20;72.60;;;;;;5093592;28;20040;-53
2023/06/10 21:48:59;;;;;;;21.30;3.50;;;21.10;72.40;;;;;;5092403;28;20280;-54
2023/06/10 21:51:24;;;;;;;23.85;4.20;;;21.00;72.90;;;;;;5091753;28;20100;-53
2023/06/10 21:53:50;;;;;;;;;;;20.90;73.10;;;;;;5092935;28;20044;-53
2023/06/10 21:56:18;;;;;;;38.08;5.43;;;20.90;73.60;;;;;;5092713;28;20349;-56
2023/06/10 21:58:44;;;;;;;34.90;4.22;;;20.80;73.70;;;;;;5091181;28;20048;-52
2023/06/10 22:01:10;;;;;;;3.92;2.38;;;20.80;73.60;;;;;;5092426;28;20500;-51
2023/06/10 22:03:36;;;;;;;8.75;3.88;;;20.80;73.40;;;;;;5092645;28;20300;-52
2023/06/10 22:06:01;;;;;;;;;;;20.80;73.60;;;;;;5092973;28;20031;-51
2023/06/10 22:08:27;;;;;;;6.18;3.03;;;20.70;74.50;;;;;;5078714;28;19919;-52
2023/06/10 22:10:53;;;;;;;10.73;3.17;;;20.70;74.30;;;;;;5092925;28;20483;-53
2023/06/10 22:13:20;;;;;;;;;;;20.70;74.60;;;;;;5093120;28;20040;-53
2023/06/10 22:15:45;;;;;;;12.50;4.28;;;20.60;74.70;;;;;;5093031;28;19916;-51
2023/06/10 22:18:11;;;;;;;;;;;20.50;74.60;;;;;;5092937;28;20064;-53
2023/06/10 22:20:36;;;;;;;6.28;2.63;;;20.50;74.90;;;;;;5092413;28;19916;-51
2023/06/10 22:23:02;;;;;;;;;;;20.50;74.50;;;;;;5093112;28;20040;-53
2023/06/10 22:25:28;;;;;;;4.50;3.25;;;20.50;74.90;;;;;;5092597;28;19962;-53
2023/06/10 22:27:53;;;;;;;;;;;20.60;74.70;;;;;;5092648;28;20093;-54
2023/06/10 22:30:19;;;;;;;9.43;3.30;;;20.60;75.20;;;;;;5092635;28;19916;-52
2023/06/10 22:32:44;;;;;;;;;;;20.60;74.80;;;;;;5092721;28;20032;-52
2023/06/10 22:35:11;;;;;;;7.85;2.95;;;20.70;75.40;;;;;;5094295;28;19919;-53
2023/06/10 22:37:36;;;;;;;4.97;3.60;;;20.70;74.90;;;;;;5091560;28;20051;-51
2023/06/10 22:40:02;;;;;;;;;;;20.70;75.00;;;;;;5092382;28;20032;-51
2023/06/10 22:42:28;;;;;;;10.43;4.68;;;20.70;75.50;;;;;;5092001;28;19920;-53
2023/06/10 22:44:53;;;;;;;;;;;20.70;75.30;;;;;;5092585;28;20032;-53
2023/06/10 22:47:19;;;;;;;19.45;5.20;;;20.70;75.90;;;;;;5091375;28;20062;-51
2023/06/10 22:49:45;;;;;;;;;;;20.70;75.70;;;;;;5091036;28;20040;-54
2023/06/10 22:52:10;;;;;;;9.13;4.03;;;20.60;76.30;;;;;;5090615;28;19949;-52
2023/06/10 22:54:36;;;;;;;;;;;20.60;76.00;;;;;;5090771;28;20036;-53
2023/06/10 22:57:02;;;;;;;7.53;3.80;;;20.50;77.00;;;;;;5090408;28;20347;-54
2023/06/10 22:59:28;;;;;;;;;;;20.50;76.80;;;;;;5092147;28;20048;-54
2023/06/10 23:01:53;;;;;;;8.45;4.43;;;20.50;77.50;;;;;;5091502;28;20401;-52
2023/06/10 23:04:19;;;;;;;;;;;20.40;77.10;;;;;;5089073;28;20406;-53
2023/06/10 23:06:45;;;;;;;9.45;5.18;;;20.40;78.10;;;;;;5080111;28;19989;-51
2023/06/10 23:09:10;;;;;;;;;;;20.40;77.50;;;;;;5091379;28;20044;-52
2023/06/10 23:11:37;;;;;;;16.25;5.63;;;20.40;78.30;;;;;;5091965;28;19916;-51
2023/06/10 23:14:02;;;;;;;7.72;5.97;;;20.40;77.80;;;;;;5091327;28;20036;-54
2023/06/10 23:16:28;;;;;;;;;;;20.40;78.30;;;;;;5091927;28;20109;-51
2023/06/10 23:18:53;;;;;;;9.38;5.35;;;20.30;78.90;;;;;;5090852;28;19977;-55
2023/06/10 23:21:20;;;;;;;;;;;20.20;78.70;;;;;;5091718;28;20040;-51
2023/06/10 23:23:51;;;;;;;8.43;6.32;;;20.20;79.50;;;;;;5090787;28;20368;-53
2023/06/10 23:26:20;;;;;;;11.45;5.78;;;20.10;79.40;;;;;;5091746;28;20119;-54
2023/06/10 23:28:46;;;;;;;8.68;6.47;;;20.00;80.10;;;;;;5090616;28;20131;-54
2023/06/10 23:31:11;;;;;;;9.23;6.53;;;19.80;80.50;;;;;;5091147;28;20119;-52
2023/06/10 23:33:38;;;;;;;;;;;19.80;81.30;;;;;;5091163;28;20044;-53
2023/06/10 23:36:04;;;;;;;9.93;7.30;;;19.80;82.40;;;;;;5095837;28;19923;-51
2023/06/10 23:38:30;;;;;;;;;;;19.80;82.20;;;;;;5099618;28;20039;-51
2023/06/10 23:40:55;;;;;;;8.02;6.60;;;19.90;83.30;;;;;;5102407;28;19916;-53
2023/06/10 23:43:21;;;;;;;11.15;7.47;;;19.80;82.70;;;;;;5099225;28;20048;-54
2023/06/10 23:45:47;;;;;;;9.57;7.28;;;19.90;83.20;;;;;;5091052;28;20047;-51
2023/06/10 23:48:13;;;;;;;9.10;6.55;;;19.90;83.50;;;;;;5090049;28;20040;-51
2023/06/10 23:50:39;;;;;;;;;;;19.90;83.70;;;;;;5091418;28;20040;-50
2023/06/10 23:53:05;;;;;;;7.28;6.30;;;19.90;84.50;;;;;;5091239;28;19922;-52
2023/06/10 23:55:32;;;;;;;10.73;6.28;;;19.90;83.90;;;;;;5090531;28;20044;-51
2023/06/10 23:57:58;;;;;;;7.53;6.85;;;20.00;84.30;;;;;;5090104;28;20040;-54
